createdAt,value
2022-12-24T00:02:13.531Z,16.30
2022-12-24T00:05:01.521Z,13.90
2022-12-24T00:07:48.619Z,17.60
2022-12-24T00:10:35.616Z,14.70
2022-12-24T00:13:22.580Z,13.63
2022-12-24T00:16:10.122Z,15.77
2022-12-24T00:18:57.121Z,13.40
2022-12-24T00:21:44.131Z,12.80
2022-12-24T00:24:31.099Z,16.00
2022-12-24T00:27:18.019Z,11.87
2022-12-24T00:30:05.550Z,17.03
2022-12-24T00:32:52.487Z,12.90
2022-12-24T00:35:40.508Z,13.67
2022-12-24T00:38:27.460Z,13.00
2022-12-24T00:41:24.926Z,15.30
2022-12-24T00:44:12.281Z,15.27
2022-12-24T00:46:59.375Z,17.67
2022-12-24T00:49:46.511Z,14.93
2022-12-24T00:52:33.533Z,13.20
2022-12-24T00:55:20.489Z,18.53
2022-12-24T00:58:07.422Z,18.67
2022-12-24T01:00:54.381Z,18.03
2022-12-24T01:03:41.465Z,18.60
2022-12-24T01:06:28.464Z,17.73
2022-12-24T01:09:15.537Z,17.67
2022-12-24T01:12:02.464Z,18.53
2022-12-24T01:14:49.691Z,17.00
2022-12-24T01:17:37.216Z,16.83
2022-12-24T01:20:26.928Z,19.10
2022-12-24T01:23:13.876Z,18.80
2022-12-24T01:26:03.154Z,21.17
2022-12-24T01:28:50.104Z,18.77
2022-12-24T01:31:37.121Z,20.63
2022-12-24T01:34:24.121Z,19.67
2022-12-24T01:37:11.088Z,18.87
2022-12-24T01:40:17.994Z,23.97
2022-12-24T01:43:23.586Z,18.87
2022-12-24T01:46:27.288Z,21.90
2022-12-24T01:49:16.786Z,25.07
2022-12-24T01:52:08.406Z,26.27
2022-12-24T01:55:00.014Z,29.20
2022-12-24T01:57:52.913Z,27.37
2022-12-24T02:00:40.257Z,30.93
2022-12-24T02:03:27.351Z,30.10
2022-12-24T02:06:16.837Z,32.07
2022-12-24T02:09:03.888Z,22.80
2022-12-24T02:11:50.981Z,29.03
2022-12-24T02:14:38.385Z,26.90
2022-12-24T02:17:33.941Z,32.23
2022-12-24T02:20:49.989Z,28.63
2022-12-24T02:24:13.637Z,29.20
2022-12-24T02:27:20.671Z,30.57
2022-12-24T02:30:10.579Z,36.23
2022-12-24T02:33:20.241Z,30.03
2022-12-24T02:36:32.513Z,38.73
2022-12-24T02:39:28.775Z,37.00
2022-12-24T02:42:20.405Z,37.50
2022-12-24T02:45:20.281Z,40.30
2022-12-24T02:48:08.004Z,30.97
2022-12-24T02:50:56.770Z,39.77
2022-12-24T02:53:43.844Z,41.03
2022-12-24T02:56:59.779Z,37.57
2022-12-24T03:00:04.140Z,37.90
2022-12-24T03:03:16.665Z,29.83
2022-12-24T03:06:38.552Z,42.27
2022-12-24T03:09:43.278Z,40.30
2022-12-24T03:12:41.298Z,32.43
2022-12-24T03:15:29.837Z,36.17
2022-12-24T03:18:20.777Z,39.17
2022-12-24T03:21:16.141Z,33.70
2022-12-24T03:24:03.477Z,35.93
2022-12-24T03:26:51.492Z,31.77
2022-12-24T03:29:40.205Z,35.97
2022-12-24T03:32:32.407Z,36.97
2022-12-24T03:35:19.387Z,37.07
2022-12-24T03:38:06.330Z,33.73
2022-12-24T03:40:53.313Z,36.63
2022-12-24T03:43:40.228Z,33.60
2022-12-24T03:46:27.210Z,34.70
2022-12-24T03:49:14.223Z,33.07
2022-12-24T03:52:01.165Z,33.17
2022-12-24T03:54:48.122Z,27.03
2022-12-24T03:57:35.110Z,30.63
2022-12-24T04:00:22.161Z,26.27
2022-12-24T04:03:09.146Z,29.57
2022-12-24T04:06:04.781Z,27.27
2022-12-24T04:08:51.749Z,35.27
2022-12-24T04:11:38.668Z,27.17
2022-12-24T04:14:25.725Z,25.57
2022-12-24T04:17:12.664Z,25.43
2022-12-24T04:19:59.600Z,25.10
2022-12-24T04:22:46.535Z,25.60
2022-12-24T04:25:33.452Z,20.33
2022-12-24T04:28:20.407Z,21.57
2022-12-24T04:31:11.596Z,24.33
2022-12-24T04:33:58.512Z,21.00
2022-12-24T04:36:45.509Z,21.03
2022-12-24T04:39:32.455Z,19.87
2022-12-24T04:42:19.385Z,25.23
2022-12-24T04:45:06.929Z,21.50
2022-12-24T04:47:53.987Z,19.40
2022-12-24T04:50:40.938Z,18.50
2022-12-24T04:53:27.861Z,21.30
2022-12-24T04:56:17.762Z,24.93
2022-12-24T04:59:04.771Z,20.50
2022-12-24T05:01:51.855Z,23.33
2022-12-24T05:04:38.956Z,27.30
2022-12-24T05:07:25.910Z,19.97
2022-12-24T05:10:12.916Z,24.03
2022-12-24T05:12:59.919Z,18.70
2022-12-24T05:15:46.837Z,20.80
2022-12-24T05:18:33.796Z,18.03
2022-12-24T05:21:22.872Z,19.23
2022-12-24T05:24:30.385Z,21.17
2022-12-24T05:27:17.351Z,17.83
2022-12-24T05:30:04.844Z,16.33
2022-12-24T05:32:51.769Z,19.63
2022-12-24T05:35:38.717Z,19.87
2022-12-24T05:38:25.719Z,15.90
2022-12-24T05:41:12.747Z,15.83
2022-12-24T05:43:59.710Z,17.87
2022-12-24T05:46:46.861Z,15.77
2022-12-24T05:49:34.283Z,18.40
2022-12-24T05:52:21.380Z,19.13
2022-12-24T05:55:09.207Z,13.13
2022-12-24T05:57:56.178Z,14.67
2022-12-24T06:00:43.252Z,15.30
2022-12-24T06:03:31.588Z,12.37
2022-12-24T06:06:24.324Z,15.07
2022-12-24T06:09:11.348Z,18.33
2022-12-24T06:11:58.304Z,11.73
2022-12-24T06:14:45.239Z,16.87
2022-12-24T06:17:32.230Z,17.10
2022-12-24T06:20:19.199Z,14.50
2022-12-24T06:23:06.160Z,14.70
2022-12-24T06:25:56.867Z,14.63
2022-12-24T06:28:44.656Z,17.00
2022-12-24T06:31:31.713Z,14.77
2022-12-24T06:34:18.730Z,13.27
2022-12-24T06:37:05.712Z,18.00
2022-12-24T06:39:52.658Z,15.03
2022-12-24T06:42:39.629Z,16.50
2022-12-24T06:45:26.566Z,16.80
2022-12-24T06:48:14.750Z,20.10
2022-12-24T06:51:03.432Z,13.43
2022-12-24T06:53:53.470Z,15.73
2022-12-24T06:56:40.450Z,16.17
2022-12-24T06:59:27.387Z,14.80
2022-12-24T07:02:14.434Z,16.43
2022-12-24T07:05:01.431Z,12.73
2022-12-24T07:07:48.464Z,19.20
2022-12-24T07:10:35.482Z,15.43
2022-12-24T07:13:22.413Z,19.77
2022-12-24T07:16:09.778Z,15.60
2022-12-24T07:18:56.836Z,16.47
2022-12-24T07:21:43.984Z,17.50
2022-12-24T07:24:30.944Z,19.10
2022-12-24T07:27:17.954Z,18.07
2022-12-24T07:30:06.233Z,16.97
2022-12-24T07:32:53.213Z,15.93
2022-12-24T07:35:40.185Z,16.07
2022-12-24T07:38:27.763Z,13.93
2022-12-24T07:41:15.110Z,20.20
2022-12-24T07:44:02.227Z,18.27
2022-12-24T07:46:49.236Z,16.07
2022-12-24T07:49:36.415Z,13.50
2022-12-24T07:52:23.355Z,14.67
2022-12-24T07:55:10.308Z,13.00
2022-12-24T07:57:57.247Z,13.87
2022-12-24T08:00:44.217Z,15.93
2022-12-24T08:03:31.300Z,12.20
2022-12-24T08:06:18.292Z,14.67
2022-12-24T08:09:05.254Z,11.93
2022-12-24T08:11:52.680Z,10.40
2022-12-24T08:14:39.709Z,13.63
2022-12-24T08:17:31.951Z,16.10
2022-12-24T08:20:19.390Z,13.00
2022-12-24T08:23:07.663Z,11.60
2022-12-24T08:25:54.592Z,12.37
2022-12-24T08:28:41.748Z,11.73
2022-12-24T08:31:28.826Z,10.27
2022-12-24T08:34:15.779Z,12.97
2022-12-24T08:37:02.708Z,11.20
2022-12-24T08:39:49.678Z,11.53
2022-12-24T08:42:36.642Z,12.60
2022-12-24T08:45:23.665Z,12.43
2022-12-24T08:48:10.921Z,13.13
2022-12-24T08:50:57.853Z,54.67
2022-12-24T08:53:45.502Z,17.73
2022-12-24T08:56:34.397Z,15.23
2022-12-24T08:59:21.377Z,13.90
2022-12-24T09:02:09.363Z,13.53
2022-12-24T09:04:56.512Z,13.83
2022-12-24T09:07:43.879Z,15.07
2022-12-24T09:10:30.835Z,11.87
2022-12-24T09:13:17.793Z,12.30
2022-12-24T09:16:05.237Z,17.67
2022-12-24T09:18:52.238Z,13.67
2022-12-24T09:21:39.216Z,11.27
2022-12-24T09:24:26.188Z,9.53
2022-12-24T09:27:13.174Z,10.83
2022-12-24T09:30:00.120Z,12.63
2022-12-24T09:32:47.073Z,10.67
2022-12-24T09:35:34.291Z,12.50
2022-12-24T09:38:22.066Z,12.50
2022-12-24T09:41:41.212Z,14.00
2022-12-24T09:44:46.005Z,11.03
2022-12-24T09:47:41.451Z,13.87
2022-12-24T09:50:56.579Z,10.60
2022-12-24T09:54:15.853Z,10.07
2022-12-24T09:57:12.698Z,11.27
2022-12-24T09:59:59.638Z,11.03
2022-12-24T10:02:47.023Z,10.00
2022-12-24T10:05:57.401Z,9.87
2022-12-24T10:09:06.737Z,12.00
2022-12-24T10:12:10.306Z,12.80
2022-12-24T10:15:16.456Z,11.83
2022-12-24T10:18:12.047Z,10.07
2022-12-24T10:21:17.162Z,12.07
2022-12-24T10:24:13.331Z,15.30
2022-12-24T10:27:14.748Z,21.07
2022-12-24T10:30:16.886Z,13.97
2022-12-24T10:33:18.504Z,10.10
2022-12-24T10:36:12.363Z,11.53
2022-12-24T10:38:59.879Z,13.10
2022-12-24T10:41:50.064Z,11.90
2022-12-24T10:44:36.988Z,8.50
2022-12-24T10:47:24.459Z,11.80
2022-12-24T10:50:11.655Z,11.50
2022-12-24T10:53:14.582Z,10.93
2022-12-24T10:56:05.315Z,12.60
2022-12-24T10:58:54.654Z,11.93
2022-12-24T11:01:47.405Z,13.30
2022-12-24T11:04:47.631Z,11.60
2022-12-24T11:07:34.657Z,10.73
2022-12-24T11:10:24.310Z,11.13
2022-12-24T11:13:41.165Z,13.70
2022-12-24T11:16:35.496Z,12.97
2022-12-24T11:19:32.808Z,10.47
2022-12-24T11:22:33.284Z,12.13
2022-12-24T11:25:28.875Z,11.03
2022-12-24T11:28:25.906Z,13.47
2022-12-24T11:31:21.080Z,10.67
2022-12-24T11:34:25.440Z,11.23
2022-12-24T11:37:15.981Z,11.83
2022-12-24T11:40:03.422Z,11.20
2022-12-24T11:42:53.784Z,12.13
2022-12-24T11:45:49.283Z,13.27
2022-12-24T11:48:36.223Z,14.63
2022-12-24T11:51:25.693Z,10.30
2022-12-24T11:54:15.975Z,10.90
2022-12-24T11:57:03.831Z,11.00
2022-12-24T11:59:52.168Z,13.30
2022-12-24T12:02:42.490Z,12.10
2022-12-24T12:05:33.059Z,12.20
2022-12-24T12:08:21.537Z,13.80
2022-12-24T12:11:14.177Z,14.37
2022-12-24T12:14:03.834Z,13.93
2022-12-24T12:17:06.018Z,13.57
2022-12-24T12:20:04.426Z,15.13
2022-12-24T12:23:12.681Z,13.03
2022-12-24T12:26:08.673Z,13.43
2022-12-24T12:29:26.365Z,13.43
2022-12-24T12:32:22.755Z,14.23
2022-12-24T12:35:27.775Z,13.37
2022-12-24T12:38:25.130Z,15.77
2022-12-24T12:41:24.383Z,17.53
2022-12-24T12:44:14.287Z,16.73
2022-12-24T12:47:24.233Z,14.93
2022-12-24T12:50:40.241Z,17.87
2022-12-24T12:53:54.046Z,17.83
2022-12-24T12:56:46.739Z,19.80
2022-12-24T12:59:54.114Z,17.53
2022-12-24T13:02:50.090Z,18.83
2022-12-24T13:05:51.001Z,21.93
2022-12-24T13:08:40.897Z,18.80
2022-12-24T13:11:30.786Z,20.33
2022-12-24T13:14:39.317Z,17.97
2022-12-24T13:18:17.569Z,21.40
2022-12-24T13:21:04.837Z,20.83
2022-12-24T13:24:13.832Z,21.87
2022-12-24T13:27:06.069Z,19.43
2022-12-24T13:30:09.679Z,21.70
2022-12-24T13:32:57.327Z,22.60
2022-12-24T13:36:22.799Z,23.47
2022-12-24T13:39:19.854Z,26.83
2022-12-24T13:42:06.902Z,26.73
2022-12-24T13:45:29.101Z,24.30
2022-12-24T13:48:16.119Z,23.43
2022-12-24T13:51:19.910Z,23.13
2022-12-24T13:54:13.676Z,27.70
2022-12-24T13:57:01.400Z,26.40
2022-12-24T13:59:56.524Z,23.70
2022-12-24T14:03:14.529Z,23.27
2022-12-24T14:06:11.952Z,23.43
2022-12-24T14:09:18.262Z,27.73
2022-12-24T14:12:05.170Z,23.23
2022-12-24T14:14:52.127Z,26.23
2022-12-24T14:17:40.232Z,26.47
2022-12-24T14:20:27.289Z,25.03
2022-12-24T14:23:30.410Z,21.70
2022-12-24T14:26:21.702Z,23.83
2022-12-24T14:29:24.877Z,23.97
2022-12-24T14:32:17.363Z,36.87
2022-12-24T14:35:19.979Z,26.50
2022-12-24T14:38:13.529Z,26.97
2022-12-24T14:41:24.056Z,24.67
2022-12-24T14:44:35.870Z,27.03
2022-12-24T14:47:42.982Z,23.10
2022-12-24T14:50:57.170Z,27.63
2022-12-24T14:54:21.867Z,26.57
2022-12-24T14:57:11.745Z,27.37
2022-12-24T15:00:02.094Z,29.77
2022-12-24T15:02:52.474Z,29.07
2022-12-24T15:05:39.627Z,48.17
2022-12-24T15:08:48.282Z,31.67
2022-12-24T15:11:36.359Z,32.33
2022-12-24T15:14:25.951Z,30.17
2022-12-24T15:17:15.517Z,30.93
2022-12-24T15:20:04.077Z,39.20
2022-12-24T15:22:54.556Z,32.87
2022-12-24T15:25:41.542Z,27.70
2022-12-24T15:28:28.465Z,37.67
2022-12-24T15:31:21.764Z,32.00
2022-12-24T15:34:38.465Z,36.80
2022-12-24T15:37:29.622Z,32.60
2022-12-24T15:40:25.021Z,31.70
2022-12-24T15:43:12.004Z,46.40
2022-12-24T15:46:00.292Z,52.93
2022-12-24T15:48:48.815Z,52.33
2022-12-24T15:51:40.478Z,46.93
2022-12-24T15:54:27.705Z,46.10
2022-12-24T15:57:22.734Z,44.00
2022-12-24T16:00:24.870Z,42.83
2022-12-24T16:03:23.343Z,41.70
2022-12-24T16:06:11.746Z,51.17
2022-12-24T16:08:58.758Z,44.97
2022-12-24T16:11:45.778Z,43.00
2022-12-24T16:14:33.624Z,34.53
2022-12-24T16:17:24.160Z,40.03
2022-12-24T16:20:19.676Z,41.53
2022-12-24T16:23:15.775Z,39.90
2022-12-24T16:26:02.759Z,42.60
2022-12-24T16:28:50.310Z,37.40
2022-12-24T16:31:46.810Z,43.90
2022-12-24T16:34:33.849Z,50.57
2022-12-24T16:37:20.776Z,48.87
2022-12-24T16:40:19.276Z,50.60
2022-12-24T16:43:28.485Z,97.37
2022-12-24T16:46:15.576Z,50.07
2022-12-24T16:49:02.534Z,75.13
2022-12-24T16:51:49.679Z,69.03
2022-12-24T16:54:36.604Z,48.87
2022-12-24T16:57:24.319Z,70.97
2022-12-24T17:00:20.713Z,31.70
2022-12-24T17:03:08.370Z,73.30
2022-12-24T17:05:55.375Z,123.43
2022-12-24T17:08:42.312Z,58.97
2022-12-24T17:11:29.252Z,48.30
2022-12-24T17:14:20.242Z,51.63
2022-12-24T17:17:10.851Z,52.63
2022-12-24T17:19:58.120Z,37.47
2022-12-24T17:22:45.047Z,37.90
2022-12-24T17:25:31.971Z,39.73
2022-12-24T17:28:18.968Z,34.97
2022-12-24T17:31:13.517Z,33.23
2022-12-24T17:34:00.557Z,29.80
2022-12-24T17:36:47.522Z,28.27
2022-12-24T17:39:34.509Z,29.67
2022-12-24T17:42:21.435Z,34.93
2022-12-24T17:45:08.908Z,25.60
2022-12-24T17:47:55.843Z,31.90
2022-12-24T17:50:42.835Z,48.37
2022-12-24T17:53:29.831Z,60.27
2022-12-24T17:56:17.172Z,41.07
2022-12-24T17:59:04.624Z,35.83
2022-12-24T18:01:51.656Z,24.83
2022-12-24T18:04:38.927Z,27.03
2022-12-24T18:07:25.933Z,26.80
2022-12-24T18:10:12.851Z,25.93
2022-12-24T18:12:59.904Z,26.00
2022-12-24T18:15:46.892Z,32.63
2022-12-24T18:18:33.884Z,26.13
2022-12-24T18:21:23.795Z,30.87
2022-12-24T18:24:13.568Z,25.30
2022-12-24T18:27:02.592Z,29.20
2022-12-24T18:29:50.212Z,30.03
2022-12-24T18:32:37.427Z,25.47
2022-12-24T18:35:26.821Z,21.57
2022-12-24T18:38:13.729Z,32.90
2022-12-24T18:41:31.190Z,27.37
2022-12-24T18:44:24.572Z,32.30
2022-12-24T18:47:12.159Z,28.70
2022-12-24T18:49:59.246Z,29.73
2022-12-24T18:52:46.171Z,29.20
2022-12-24T18:55:37.384Z,27.03
2022-12-24T18:58:24.489Z,26.47
2022-12-24T19:01:20.319Z,28.60
2022-12-24T19:04:07.388Z,26.47
2022-12-24T19:06:54.330Z,25.13
2022-12-24T19:09:41.347Z,32.10
2022-12-24T19:12:28.263Z,22.53
2022-12-24T19:15:15.353Z,27.07
2022-12-24T19:18:02.265Z,30.27
2022-12-24T19:20:49.372Z,26.93
2022-12-24T19:23:36.614Z,34.13
2022-12-24T19:26:23.708Z,31.63
2022-12-24T19:29:10.682Z,29.60
2022-12-24T19:31:57.694Z,24.63
2022-12-24T19:34:44.691Z,18.93
2022-12-24T19:37:31.608Z,23.27
2022-12-24T19:40:18.631Z,26.30
2022-12-24T19:43:05.543Z,27.47
2022-12-24T19:45:57.877Z,25.13
2022-12-24T19:48:53.306Z,23.47
2022-12-24T19:51:41.697Z,22.03
2022-12-24T19:54:28.636Z,25.60
2022-12-24T19:57:17.709Z,19.53
2022-12-24T20:00:06.117Z,24.53
2022-12-24T20:02:53.145Z,18.37
2022-12-24T20:05:42.120Z,28.13
2022-12-24T20:08:29.923Z,19.33
2022-12-24T20:11:19.646Z,19.70
2022-12-24T20:14:07.236Z,22.73
2022-12-24T20:16:56.522Z,21.13
2022-12-24T20:19:43.529Z,21.00
2022-12-24T20:22:30.517Z,21.53
2022-12-24T20:25:17.471Z,24.60
2022-12-24T20:28:05.736Z,26.17
2022-12-24T20:30:53.080Z,20.17
2022-12-24T20:33:41.165Z,22.00
2022-12-24T20:36:30.316Z,24.40
2022-12-24T20:39:17.331Z,20.43
2022-12-24T20:42:04.854Z,20.70
2022-12-24T20:44:53.885Z,18.33
2022-12-24T20:47:41.828Z,16.17
2022-12-24T20:50:29.376Z,21.93
2022-12-24T20:53:16.340Z,21.60
2022-12-24T20:56:03.342Z,22.67
2022-12-24T20:58:50.971Z,26.00
2022-12-24T21:01:38.926Z,25.93
2022-12-24T21:04:26.767Z,16.23
2022-12-24T21:07:14.360Z,28.37
2022-12-24T21:10:02.067Z,22.27
2022-12-24T21:12:51.886Z,30.53
2022-12-24T21:15:40.276Z,24.47
2022-12-24T21:18:27.628Z,24.47
2022-12-24T21:21:14.996Z,19.73
2022-12-24T21:24:02.913Z,22.80
2022-12-24T21:26:50.005Z,29.63
2022-12-24T21:29:37.013Z,22.10
2022-12-24T21:32:25.379Z,20.27
2022-12-24T21:35:12.612Z,23.63
2022-12-24T21:37:59.521Z,24.23
2022-12-24T21:40:46.456Z,18.07
2022-12-24T21:43:34.535Z,17.17
2022-12-24T21:46:24.833Z,14.03
2022-12-24T21:49:30.461Z,17.13
2022-12-24T21:52:17.376Z,17.43
2022-12-24T21:55:06.155Z,14.47
2022-12-24T21:57:53.121Z,19.63
2022-12-24T22:00:40.796Z,22.20
2022-12-24T22:03:27.802Z,20.77
2022-12-24T22:06:35.103Z,16.07
2022-12-24T22:09:40.664Z,20.57
2022-12-24T22:12:33.045Z,13.70
2022-12-24T22:15:20.110Z,16.70
2022-12-24T22:18:07.830Z,14.83
2022-12-24T22:20:54.990Z,16.17
2022-12-24T22:23:42.749Z,19.47
2022-12-24T22:26:29.817Z,26.27
2022-12-24T22:29:16.734Z,20.00
2022-12-24T22:32:03.724Z,17.33
2022-12-24T22:34:50.657Z,17.73
2022-12-24T22:37:37.626Z,18.27
2022-12-24T22:40:24.633Z,19.23
2022-12-24T22:43:11.569Z,23.50
2022-12-24T22:45:58.576Z,21.17
2022-12-24T22:48:45.998Z,22.47
2022-12-24T22:51:32.947Z,27.93
2022-12-24T22:54:19.908Z,25.33
2022-12-24T22:57:06.864Z,22.13
2022-12-24T22:59:53.927Z,23.30
2022-12-24T23:02:41.041Z,24.90
2022-12-24T23:05:28.089Z,23.27
2022-12-24T23:08:15.024Z,24.60
2022-12-24T23:11:08.278Z,16.50
2022-12-24T23:14:13.887Z,19.70
2022-12-24T23:17:02.050Z,18.17
2022-12-24T23:19:48.991Z,23.33
2022-12-24T23:22:36.024Z,18.50
2022-12-24T23:25:23.703Z,22.97
2022-12-24T23:28:10.637Z,21.67
2022-12-24T23:31:01.022Z,28.30
2022-12-24T23:33:48.587Z,22.27
2022-12-24T23:36:35.585Z,14.83
2022-12-24T23:39:22.680Z,15.83
2022-12-24T23:42:09.636Z,20.17
2022-12-24T23:44:56.554Z,19.73
2022-12-24T23:47:43.486Z,27.17
2022-12-24T23:50:30.707Z,18.20
2022-12-24T23:53:18.751Z,20.70
2022-12-24T23:56:07.081Z,24.43
2022-12-24T23:58:54.070Z,29.53
